createdAt,value
2018-09-09T00:00:15.453Z,86.27
2018-09-09T00:02:43.113Z,86.10
2018-09-09T00:05:10.782Z,86.08
2018-09-09T00:07:38.432Z,86.63
2018-09-09T00:10:06.509Z,86.31
2018-09-09T00:12:34.153Z,85.65
2018-09-09T00:15:01.823Z,85.97
2018-09-09T00:17:29.457Z,85.88
2018-09-09T00:19:57.225Z,85.20
2018-09-09T00:22:24.890Z,84.87
2018-09-09T00:24:52.605Z,85.08
2018-09-09T00:27:20.366Z,85.91
2018-09-09T00:29:48.026Z,85.82
2018-09-09T00:32:15.692Z,85.79
2018-09-09T00:34:43.465Z,85.94
2018-09-09T00:37:11.118Z,86.29
2018-09-09T00:39:38.800Z,86.67
2018-09-09T00:42:06.602Z,86.28
2018-09-09T00:44:34.280Z,85.82
2018-09-09T00:47:01.944Z,86.85
2018-09-09T00:49:35.341Z,87.55
2018-09-09T00:52:08.479Z,86.25
2018-09-09T00:54:36.244Z,86.01
2018-09-09T00:57:03.941Z,87.20
2018-09-09T00:59:31.612Z,86.52
2018-09-09T01:01:59.377Z,86.34
2018-09-09T01:04:27.022Z,86.32
2018-09-09T01:06:54.658Z,85.81
2018-09-09T01:09:26.909Z,86.30
2018-09-09T01:11:54.562Z,86.65
2018-09-09T01:14:22.207Z,87.24
2018-09-09T01:16:49.975Z,86.57
2018-09-09T01:19:17.647Z,87.55
2018-09-09T01:21:45.323Z,87.83
2018-09-09T01:24:13.079Z,86.32
2018-09-09T01:26:40.750Z,87.15
2018-09-09T01:29:08.417Z,86.60
2018-09-09T01:31:36.169Z,86.13
2018-09-09T01:34:03.857Z,85.95
2018-09-09T01:36:31.529Z,87.45
2018-09-09T01:38:59.289Z,86.47
2018-09-09T01:41:26.957Z,86.60
2018-09-09T01:43:54.626Z,87.04
2018-09-09T01:46:22.402Z,86.53
2018-09-09T01:48:50.055Z,88.10
2018-09-09T01:51:17.728Z,87.17
2018-09-09T01:53:45.395Z,86.94
2018-09-09T01:56:13.093Z,87.87
2018-09-09T01:58:40.792Z,88.62
2018-09-09T02:01:08.458Z,87.71
2018-09-09T02:03:36.217Z,87.33
2018-09-09T02:06:03.909Z,86.46
2018-09-09T02:08:31.562Z,88.01
2018-09-09T02:11:00.428Z,87.11
2018-09-09T02:13:29.540Z,86.76
2018-09-09T02:15:57.206Z,86.80
2018-09-09T02:18:24.885Z,87.34
2018-09-09T02:20:52.569Z,86.93
2018-09-09T02:23:20.242Z,86.82
2018-09-09T02:25:48.024Z,88.07
2018-09-09T02:28:15.622Z,87.96
2018-09-09T02:30:43.277Z,87.61
2018-09-09T02:33:11.473Z,86.68
2018-09-09T02:35:39.120Z,87.22
2018-09-09T02:38:06.770Z,87.05
2018-09-09T02:40:34.496Z,88.33
2018-09-09T02:43:02.309Z,87.86
2018-09-09T02:45:29.976Z,87.63
2018-09-09T02:47:57.644Z,87.27
2018-09-09T02:50:25.306Z,87.85
2018-09-09T02:52:52.968Z,86.99
2018-09-09T02:55:20.629Z,87.75
2018-09-09T02:57:48.311Z,87.77
2018-09-09T03:00:15.969Z,87.76
2018-09-09T03:02:43.769Z,87.39
2018-09-09T03:05:11.432Z,87.08
2018-09-09T03:07:39.079Z,86.91
2018-09-09T03:10:06.771Z,87.07
2018-09-09T03:12:34.425Z,87.02
2018-09-09T03:15:02.112Z,87.05
2018-09-09T03:17:29.781Z,86.87
2018-09-09T03:19:57.513Z,86.93
2018-09-09T03:22:25.172Z,86.92
2018-09-09T03:24:52.833Z,86.75
2018-09-09T03:27:20.552Z,87.08
2018-09-09T03:29:48.197Z,87.00
2018-09-09T03:32:15.848Z,87.02
2018-09-09T03:34:43.507Z,88.07
2018-09-09T03:37:11.165Z,87.33
2018-09-09T03:39:38.848Z,87.42
2018-09-09T03:42:06.639Z,87.30
2018-09-09T03:44:34.293Z,87.35
2018-09-09T03:47:02.214Z,87.32
2018-09-09T03:49:29.873Z,87.48
2018-09-09T03:51:57.541Z,87.50
2018-09-09T03:54:25.211Z,87.37
2018-09-09T03:56:52.870Z,87.00
2018-09-09T03:59:20.515Z,88.23
2018-09-09T04:01:48.168Z,87.42
2018-09-09T04:04:15.824Z,87.40
2018-09-09T04:06:43.485Z,87.26
2018-09-09T04:09:11.125Z,86.92
2018-09-09T04:11:38.778Z,88.17
2018-09-09T04:14:06.537Z,87.70
2018-09-09T04:16:34.197Z,88.04
2018-09-09T04:19:01.869Z,87.74
2018-09-09T04:21:29.535Z,86.97
2018-09-09T04:23:57.198Z,86.88
2018-09-09T04:26:24.870Z,86.89
2018-09-09T04:28:52.502Z,87.00
2018-09-09T04:31:20.172Z,86.65
2018-09-09T04:33:47.869Z,88.25
2018-09-09T04:36:15.536Z,87.73
2018-09-09T04:38:43.186Z,87.39
2018-09-09T04:41:10.839Z,87.04
2018-09-09T04:43:38.487Z,88.25
2018-09-09T04:46:06.164Z,88.06
2018-09-09T04:48:33.821Z,87.52
2018-09-09T04:51:01.478Z,87.21
2018-09-09T04:53:29.156Z,86.97
2018-09-09T04:55:56.818Z,86.96
2018-09-09T04:58:24.509Z,87.33
2018-09-09T05:00:52.323Z,88.24
2018-09-09T05:03:20.010Z,88.07
2018-09-09T05:05:47.655Z,88.28
2018-09-09T05:08:15.301Z,87.97
2018-09-09T05:10:42.976Z,89.48
2018-09-09T05:13:10.625Z,89.66
2018-09-09T05:15:38.323Z,89.38
2018-09-09T05:18:05.974Z,88.00
2018-09-09T05:20:33.631Z,89.01
2018-09-09T05:23:01.293Z,87.91
2018-09-09T05:25:28.971Z,88.02
2018-09-09T05:27:56.698Z,87.72
2018-09-09T05:30:24.370Z,87.58
2018-09-09T05:32:52.028Z,87.52
2018-09-09T05:35:19.705Z,87.22
2018-09-09T05:37:47.378Z,87.55
2018-09-09T05:40:15.062Z,87.73
2018-09-09T05:42:42.722Z,87.23
2018-09-09T05:45:10.383Z,87.41
2018-09-09T05:47:38.037Z,87.83
2018-09-09T05:50:05.742Z,87.31
2018-09-09T05:52:33.392Z,87.22
2018-09-09T05:55:01.028Z,88.05
2018-09-09T05:57:28.745Z,87.32
2018-09-09T05:59:56.425Z,87.50
2018-09-09T06:02:24.115Z,87.27
2018-09-09T06:04:51.784Z,87.00
2018-09-09T06:07:19.461Z,86.98
2018-09-09T06:09:47.151Z,87.02
2018-09-09T06:12:14.798Z,86.81
2018-09-09T06:14:42.467Z,86.85
2018-09-09T06:17:10.126Z,86.87
2018-09-09T06:19:37.787Z,86.79
2018-09-09T06:22:05.790Z,86.86
2018-09-09T06:24:33.508Z,86.91
2018-09-09T06:27:01.154Z,86.64
2018-09-09T06:29:28.799Z,86.53
2018-09-09T06:31:56.473Z,86.87
2018-09-09T06:34:24.153Z,86.99
2018-09-09T06:36:51.804Z,86.46
2018-09-09T06:39:19.467Z,86.55
2018-09-09T06:41:47.140Z,86.53
2018-09-09T06:44:14.833Z,86.58
2018-09-09T06:46:42.488Z,86.42
2018-09-09T06:49:10.154Z,86.79
2018-09-09T06:51:37.818Z,86.34
2018-09-09T06:54:05.630Z,86.54
2018-09-09T06:56:33.413Z,86.29
2018-09-09T06:59:01.075Z,85.88
2018-09-09T07:01:28.950Z,86.04
2018-09-09T07:03:56.614Z,86.31
2018-09-09T07:06:24.265Z,86.03
2018-09-09T07:08:51.917Z,86.25
2018-09-09T07:11:19.616Z,86.00
2018-09-09T07:13:47.287Z,86.20
2018-09-09T07:16:14.937Z,85.66
2018-09-09T07:18:42.617Z,85.69
2018-09-09T07:21:10.281Z,85.69
2018-09-09T07:23:37.958Z,85.55
2018-09-09T07:26:06.056Z,85.47
2018-09-09T07:28:33.799Z,85.73
2018-09-09T07:31:01.496Z,85.39
2018-09-09T07:33:29.128Z,85.26
2018-09-09T07:35:56.779Z,85.33
2018-09-09T07:38:24.447Z,85.03
2018-09-09T07:40:52.112Z,84.18
2018-09-09T07:43:19.795Z,84.24
2018-09-09T07:45:47.460Z,84.68
2018-09-09T07:48:15.132Z,84.55
2018-09-09T07:50:42.798Z,84.43
2018-09-09T07:55:51.769Z,83.97
2018-09-09T07:58:19.458Z,84.27
2018-09-09T08:00:47.110Z,83.91
2018-09-09T08:03:14.816Z,84.03
2018-09-09T08:05:42.476Z,82.08
2018-09-09T08:08:10.130Z,83.90
2018-09-09T08:10:37.782Z,83.79
2018-09-09T08:13:05.767Z,83.61
2018-09-09T08:15:33.413Z,83.57
2018-09-09T08:18:01.072Z,83.12
2018-09-09T08:20:28.728Z,83.46
2018-09-09T08:22:56.377Z,83.33
2018-09-09T08:25:24.076Z,83.22
2018-09-09T08:27:51.747Z,83.01
2018-09-09T08:30:19.419Z,82.93
2018-09-09T08:32:47.102Z,82.49
2018-09-09T08:35:14.759Z,82.19
2018-09-09T08:37:42.404Z,82.38
2018-09-09T08:40:10.086Z,82.00
2018-09-09T08:42:37.746Z,81.62
2018-09-09T08:45:05.670Z,81.80
2018-09-09T08:47:33.360Z,81.82
2018-09-09T08:50:01.019Z,81.58
2018-09-09T08:52:28.669Z,81.59
2018-09-09T08:54:56.325Z,80.53
2018-09-09T08:57:23.996Z,81.57
2018-09-09T08:59:51.635Z,80.95
2018-09-09T09:02:19.290Z,80.56
2018-09-09T09:04:46.914Z,78.43
2018-09-09T09:07:14.633Z,78.97
2018-09-09T09:09:42.350Z,78.73
2018-09-09T09:12:10.581Z,78.33
2018-09-09T09:14:39.027Z,78.78
2018-09-09T09:17:06.825Z,78.58
2018-09-09T09:19:34.581Z,78.44
2018-09-09T09:22:02.236Z,78.60
2018-09-09T09:24:29.941Z,78.51
2018-09-09T09:26:57.589Z,78.68
2018-09-09T09:29:28.341Z,78.58
2018-09-09T09:31:55.994Z,77.70
2018-09-09T09:34:23.645Z,78.23
2018-09-09T09:36:51.301Z,77.45
2018-09-09T09:39:18.977Z,77.46
2018-09-09T09:41:46.622Z,76.85
2018-09-09T09:44:14.286Z,76.96
2018-09-09T09:46:41.940Z,75.42
2018-09-09T09:49:09.608Z,72.25
2018-09-09T09:51:37.270Z,72.17
2018-09-09T09:54:05.077Z,70.34
2018-09-09T09:56:32.719Z,74.49
2018-09-09T09:59:00.441Z,74.54
2018-09-09T10:01:28.119Z,74.32
2018-09-09T10:03:56.486Z,70.57
2018-09-09T10:06:24.149Z,72.22
2018-09-09T10:08:51.843Z,73.11
2018-09-09T10:11:19.539Z,72.67
2018-09-09T10:13:47.224Z,73.14
2018-09-09T10:16:14.857Z,73.40
2018-09-09T10:18:42.576Z,72.71
2018-09-09T10:21:10.379Z,73.25
2018-09-09T10:23:38.139Z,68.62
2018-09-09T10:26:05.908Z,72.21
2018-09-09T10:28:33.633Z,72.54
2018-09-09T10:31:01.324Z,72.22
2018-09-09T10:33:29.082Z,71.91
2018-09-09T10:35:56.793Z,71.93
2018-09-09T10:38:24.466Z,70.97
2018-09-09T10:40:52.200Z,71.51
2018-09-09T10:43:19.930Z,72.16
2018-09-09T10:45:47.588Z,71.75
2018-09-09T10:48:15.285Z,71.03
2018-09-09T10:50:42.949Z,70.09
2018-09-09T10:53:10.639Z,70.30
2018-09-09T10:55:38.289Z,70.75
2018-09-09T10:58:05.936Z,70.98
2018-09-09T11:00:34.155Z,70.49
2018-09-09T11:03:01.822Z,70.23
2018-09-09T11:05:29.466Z,70.11
2018-09-09T11:07:57.155Z,70.74
2018-09-09T11:10:24.820Z,70.63
2018-09-09T11:12:52.481Z,70.56
2018-09-09T11:15:20.193Z,69.98
2018-09-09T11:17:47.854Z,70.14
2018-09-09T11:20:15.505Z,70.40
2018-09-09T11:22:43.146Z,69.58
2018-09-09T11:25:10.788Z,69.57
2018-09-09T11:27:38.444Z,70.50
2018-09-09T11:30:06.270Z,70.25
2018-09-09T11:32:33.919Z,70.23
2018-09-09T11:35:01.618Z,70.61
2018-09-09T11:37:29.262Z,70.51
2018-09-09T11:39:56.930Z,70.38
2018-09-09T11:42:24.621Z,70.05
2018-09-09T11:44:52.274Z,69.99
2018-09-09T11:47:19.959Z,69.86
2018-09-09T11:49:47.597Z,69.53
2018-09-09T11:52:15.263Z,68.73
2018-09-09T11:54:42.916Z,69.55
2018-09-09T11:57:10.660Z,69.65
2018-09-09T11:59:38.367Z,69.15
2018-09-09T12:02:06.135Z,69.55
2018-09-09T12:04:33.970Z,69.38
2018-09-09T12:07:01.618Z,69.42
2018-09-09T12:09:29.252Z,69.54
2018-09-09T12:11:56.933Z,69.77
2018-09-09T12:14:24.584Z,69.72
2018-09-09T12:16:52.217Z,68.42
2018-09-09T12:19:19.885Z,69.21
2018-09-09T12:21:47.538Z,69.61
2018-09-09T12:24:15.334Z,69.28
2018-09-09T12:26:43.012Z,68.75
2018-09-09T12:29:10.656Z,69.37
2018-09-09T12:31:38.310Z,68.19
2018-09-09T12:34:06.009Z,69.20
2018-09-09T12:36:33.652Z,69.31
2018-09-09T12:39:01.336Z,69.34
2018-09-09T12:41:29.002Z,69.33
2018-09-09T12:44:02.304Z,68.49
2018-09-09T12:46:35.493Z,68.35
2018-09-09T12:49:05.619Z,68.61
2018-09-09T12:51:33.285Z,68.84
2018-09-09T12:54:00.940Z,66.95
2018-09-09T12:56:28.600Z,68.05
2018-09-09T12:58:56.799Z,67.91
2018-09-09T13:01:24.469Z,66.94
2018-09-09T13:03:52.149Z,67.90
2018-09-09T13:06:19.968Z,67.71
2018-09-09T13:08:47.714Z,67.69
2018-09-09T13:11:15.538Z,67.23
2018-09-09T13:13:43.261Z,67.06
2018-09-09T13:16:12.055Z,67.51
2018-09-09T13:18:39.728Z,67.17
2018-09-09T13:21:07.429Z,67.22
2018-09-09T13:23:35.135Z,67.62
2018-09-09T13:26:02.851Z,67.87
2018-09-09T13:28:30.584Z,67.38
2018-09-09T13:30:58.344Z,67.65
2018-09-09T13:33:26.097Z,68.23
2018-09-09T13:35:54.136Z,68.41
2018-09-09T13:38:21.939Z,68.42
2018-09-09T13:40:49.660Z,68.64
2018-09-09T13:43:17.455Z,69.02
2018-09-09T13:45:45.167Z,68.76
2018-09-09T13:48:13.020Z,69.34
2018-09-09T13:50:40.710Z,69.17
2018-09-09T13:53:08.449Z,69.30
2018-09-09T13:55:36.149Z,69.11
2018-09-09T13:58:03.910Z,69.34
2018-09-09T14:00:31.597Z,69.36
2018-09-09T14:02:59.247Z,69.58
2018-09-09T14:05:26.930Z,69.79
2018-09-09T14:07:54.667Z,69.55
2018-09-09T14:10:22.355Z,69.78
2018-09-09T14:12:50.019Z,69.67
2018-09-09T14:15:17.740Z,69.17
2018-09-09T14:17:45.428Z,69.61
2018-09-09T14:20:13.089Z,69.64
2018-09-09T14:22:40.766Z,69.57
2018-09-09T14:25:08.549Z,68.99
2018-09-09T14:27:36.194Z,69.69
2018-09-09T14:30:04.081Z,69.43
2018-09-09T14:32:31.784Z,68.71
2018-09-09T14:34:59.452Z,68.83
2018-09-09T14:37:27.116Z,69.33
2018-09-09T14:39:55.048Z,69.09
2018-09-09T14:42:22.737Z,69.09
2018-09-09T14:44:50.406Z,69.30
2018-09-09T14:47:18.066Z,69.42
2018-09-09T14:49:46.158Z,69.66
2018-09-09T14:52:13.823Z,69.50
2018-09-09T14:54:41.510Z,69.73
2018-09-09T14:57:09.217Z,69.80
2018-09-09T14:59:36.952Z,69.69
2018-09-09T15:02:04.716Z,69.81
2018-09-09T15:04:32.424Z,69.95
2018-09-09T15:07:00.183Z,69.51
2018-09-09T15:09:27.906Z,69.93
2018-09-09T15:11:55.649Z,69.77
2018-09-09T15:14:23.372Z,69.90
2018-09-09T15:16:51.114Z,69.86
2018-09-09T15:19:18.807Z,69.76
2018-09-09T15:21:46.525Z,70.03
2018-09-09T15:24:14.217Z,69.94
2018-09-09T15:26:43.053Z,70.14
2018-09-09T15:29:10.727Z,70.04
2018-09-09T15:31:38.453Z,69.86
2018-09-09T15:34:06.133Z,69.80
2018-09-09T15:36:33.836Z,69.68
2018-09-09T15:39:01.591Z,70.04
2018-09-09T15:41:29.490Z,69.73
2018-09-09T15:43:57.184Z,69.87
2018-09-09T15:46:24.841Z,70.10
2018-09-09T15:48:52.517Z,69.77
2018-09-09T15:51:20.192Z,69.78
2018-09-09T15:53:47.853Z,70.09
2018-09-09T15:56:15.522Z,70.28
2018-09-09T15:58:43.181Z,70.14
2018-09-09T16:01:10.856Z,70.48
2018-09-09T16:03:38.866Z,70.54
2018-09-09T16:06:06.591Z,70.93
2018-09-09T16:08:34.255Z,71.04
2018-09-09T16:11:02.320Z,71.17
2018-09-09T16:13:29.998Z,71.15
2018-09-09T16:15:57.673Z,71.31
2018-09-09T16:18:25.645Z,71.65
2018-09-09T16:20:53.345Z,71.25
2018-09-09T16:23:21.106Z,72.13
2018-09-09T16:25:49.062Z,72.19
2018-09-09T16:28:16.731Z,72.56
2018-09-09T16:30:44.448Z,72.47
2018-09-09T16:33:12.393Z,73.14
2018-09-09T16:35:40.074Z,72.79
2018-09-09T16:38:07.746Z,73.40
2018-09-09T16:40:35.421Z,72.66
2018-09-09T16:43:03.102Z,72.86
2018-09-09T16:45:30.794Z,73.29
2018-09-09T16:47:58.465Z,73.48
2018-09-09T16:50:26.523Z,73.95
2018-09-09T16:52:54.237Z,73.31
2018-09-09T16:55:21.925Z,73.50
2018-09-09T16:57:49.572Z,73.32
2018-09-09T17:00:17.256Z,73.80
2018-09-09T17:02:45.246Z,74.07
2018-09-09T17:05:12.918Z,74.96
2018-09-09T17:07:40.612Z,75.01
2018-09-09T17:10:08.339Z,74.09
2018-09-09T17:12:36.072Z,74.10
2018-09-09T17:15:03.881Z,74.14
2018-09-09T17:17:31.564Z,74.51
2018-09-09T17:19:59.363Z,74.36
2018-09-09T17:22:27.023Z,74.68
2018-09-09T17:24:54.702Z,74.51
2018-09-09T17:27:22.345Z,74.58
2018-09-09T17:29:50.352Z,75.04
2018-09-09T17:32:18.047Z,75.05
2018-09-09T17:34:45.740Z,74.97
2018-09-09T17:37:13.444Z,75.71
2018-09-09T17:39:41.134Z,75.71
2018-09-09T17:42:09.128Z,75.66
2018-09-09T17:44:36.812Z,75.86
2018-09-09T17:47:04.558Z,76.00
2018-09-09T17:49:32.229Z,75.83
2018-09-09T17:51:59.944Z,77.07
2018-09-09T17:54:27.994Z,76.57
2018-09-09T17:56:55.665Z,76.47
2018-09-09T17:59:23.419Z,76.62
2018-09-09T18:01:51.097Z,76.81
2018-09-09T18:04:18.786Z,78.05
2018-09-09T18:06:46.838Z,77.23
2018-09-09T18:09:14.542Z,77.40
2018-09-09T18:11:42.234Z,76.77
2018-09-09T18:14:09.941Z,76.60
2018-09-09T18:16:37.827Z,77.53
2018-09-09T18:19:05.501Z,77.90
2018-09-09T18:21:33.171Z,77.24
2018-09-09T18:24:01.153Z,77.02
2018-09-09T18:26:28.862Z,78.45
2018-09-09T18:28:56.544Z,78.34
2018-09-09T18:31:24.522Z,77.57
2018-09-09T18:33:52.256Z,77.12
2018-09-09T18:36:20.121Z,77.30
2018-09-09T18:38:48.113Z,78.41
2018-09-09T18:41:15.782Z,77.77
2018-09-09T18:43:43.474Z,78.30
2018-09-09T18:46:11.191Z,78.30
2018-09-09T18:48:39.250Z,77.72
2018-09-09T18:51:06.921Z,78.19
2018-09-09T18:53:34.633Z,78.23
2018-09-09T18:56:02.638Z,78.60
2018-09-09T18:58:30.279Z,78.91
2018-09-09T19:00:57.937Z,78.84
2018-09-09T19:03:25.607Z,78.85
2018-09-09T19:05:53.263Z,80.70
2018-09-09T19:08:20.947Z,79.42
2018-09-09T19:10:48.636Z,79.44
2018-09-09T19:13:16.326Z,79.54
2018-09-09T19:15:44.033Z,80.88
2018-09-09T19:18:11.701Z,79.79
2018-09-09T19:20:39.453Z,80.35
2018-09-09T19:23:07.421Z,80.68
2018-09-09T19:25:35.619Z,81.22
2018-09-09T19:28:03.312Z,81.22
2018-09-09T19:30:31.003Z,80.05
2018-09-09T19:32:58.697Z,80.46
2018-09-09T19:35:26.694Z,80.29
2018-09-09T19:37:54.388Z,79.79
2018-09-09T19:40:22.058Z,79.70
2018-09-09T19:42:49.730Z,79.78
2018-09-09T19:45:17.404Z,80.25
2018-09-09T19:47:45.074Z,80.96
2018-09-09T19:50:12.771Z,80.97
2018-09-09T19:52:40.445Z,79.71
2018-09-09T19:55:08.160Z,79.93
2018-09-09T19:57:35.867Z,80.47
2018-09-09T20:00:03.674Z,80.09
2018-09-09T20:02:31.351Z,80.23
2018-09-09T20:04:59.022Z,79.94
2018-09-09T20:07:27.040Z,80.27
2018-09-09T20:09:54.710Z,80.74
2018-09-09T20:12:22.379Z,79.86
2018-09-09T20:14:50.101Z,79.82
2018-09-09T20:17:17.818Z,79.78
2018-09-09T20:19:45.794Z,79.73
2018-09-09T20:22:13.466Z,79.65
2018-09-09T20:24:41.269Z,80.96
2018-09-09T20:27:08.944Z,80.05
2018-09-09T20:29:37.295Z,80.33
2018-09-09T20:32:05.309Z,79.80
2018-09-09T20:34:33.070Z,79.74
2018-09-09T20:37:00.741Z,80.13
2018-09-09T20:39:28.708Z,80.32
2018-09-09T20:41:56.409Z,79.98
2018-09-09T20:44:24.046Z,80.25
2018-09-09T20:46:52.028Z,79.83
2018-09-09T20:49:19.690Z,79.85
2018-09-09T20:51:48.471Z,80.20
2018-09-09T20:54:16.146Z,79.95
2018-09-09T20:56:43.797Z,80.68
2018-09-09T20:59:11.469Z,80.06
2018-09-09T21:01:39.176Z,80.77
2018-09-09T21:04:07.250Z,80.75
2018-09-09T21:06:34.901Z,79.93
2018-09-09T21:09:02.708Z,80.71
2018-09-09T21:11:31.181Z,80.87
2018-09-09T21:13:58.855Z,80.67
2018-09-09T21:16:26.581Z,80.16
2018-09-09T21:18:54.271Z,79.94
2018-09-09T21:21:22.349Z,79.84
2018-09-09T21:23:50.032Z,79.86
2018-09-09T21:26:17.717Z,80.09
2018-09-09T21:28:45.426Z,80.20
2018-09-09T21:31:13.106Z,81.94
2018-09-09T21:33:40.767Z,82.67
2018-09-09T21:36:08.497Z,82.46
2018-09-09T21:38:36.180Z,81.26
2018-09-09T21:41:03.916Z,81.76
2018-09-09T21:43:31.974Z,81.29
2018-09-09T21:45:59.675Z,82.44
2018-09-09T21:48:27.377Z,82.21
2018-09-09T21:50:55.165Z,82.22
2018-09-09T21:53:23.383Z,82.35
2018-09-09T21:55:51.345Z,81.64
2018-09-09T21:58:19.041Z,82.96
2018-09-09T22:01:53.686Z,82.98
2018-09-09T22:04:21.354Z,83.53
2018-09-09T22:06:49.028Z,82.61
2018-09-09T22:09:16.713Z,82.14
2018-09-09T22:11:44.373Z,81.52
2018-09-09T22:14:12.045Z,81.13
2018-09-09T22:16:39.703Z,81.26
2018-09-09T22:19:07.497Z,81.69
2018-09-09T22:21:35.141Z,83.34
2018-09-09T22:24:02.832Z,84.05
2018-09-09T22:26:30.560Z,83.80
2018-09-09T22:28:58.529Z,83.03
2018-09-09T22:31:26.233Z,82.70
2018-09-09T22:33:53.934Z,82.48
2018-09-09T22:36:21.661Z,81.76
2018-09-09T22:38:49.330Z,81.41
2018-09-09T22:41:17.083Z,81.79
2018-09-09T22:43:44.742Z,82.11
2018-09-09T22:46:12.726Z,81.94
2018-09-09T22:48:40.409Z,81.37
2018-09-09T22:51:08.065Z,81.39
2018-09-09T22:53:35.733Z,81.42
2018-09-09T22:56:03.681Z,81.32
2018-09-09T22:58:31.374Z,81.51
2018-09-09T23:00:59.038Z,82.01
2018-09-09T23:03:27.009Z,83.63
2018-09-09T23:05:54.670Z,82.31
2018-09-09T23:08:22.382Z,82.91
2018-09-09T23:10:50.401Z,84.85
2018-09-09T23:13:18.079Z,83.91
2018-09-09T23:15:45.839Z,85.04
2018-09-09T23:18:13.525Z,85.49
2018-09-09T23:20:41.255Z,85.05
2018-09-09T23:23:08.943Z,84.86
2018-09-09T23:25:37.013Z,83.96
2018-09-09T23:28:04.814Z,83.78
2018-09-09T23:30:32.472Z,85.64
2018-09-09T23:33:00.137Z,86.15
2018-09-09T23:35:28.189Z,85.70
2018-09-09T23:37:55.885Z,85.58
2018-09-09T23:40:23.560Z,85.49
2018-09-09T23:42:51.214Z,85.08
2018-09-09T23:45:18.878Z,85.45
2018-09-09T23:47:57.085Z,85.73
2018-09-09T23:50:24.763Z,84.67
2018-09-09T23:52:52.420Z,86.46
2018-09-09T23:55:20.091Z,85.13
2018-09-09T23:57:48.149Z,84.34
